Time;durP1;ratioP1;P1;durP2;ratioP2;P2;SDS_P1;SDS_P2;PMS_P1;PMS_P2;Temp;Humidity;BMP_temperature;BMP_pressure;BME280_temperature;BME280_humidity;BME280_pressure;Samples;Min_cycle;Max_cycle;Signal;HPM_P1;HPM_P2
2023/10/16 00:02:14;;;;;;;2.77;2.57;;;;;;;;;;5053493;28;20229;-83
2023/10/16 00:04:43;;;;;;;2.47;2.37;;;;;;;;;;5054368;28;20231;-84
2023/10/16 00:07:11;;;;;;;3.13;2.83;;;;;;;;;;5053876;28;20237;-84
2023/10/16 00:09:39;;;;;;;2.73;2.57;;;;;;;;;;5054201;28;20236;-83
2023/10/16 00:12:07;;;;;;;2.93;2.53;;;;;;;;;;5053681;28;20236;-83
2023/10/16 00:14:35;;;;;;;2.30;2.20;;;;;;;;;;5054224;28;20289;-83
2023/10/16 00:17:03;;;;;;;2.43;2.33;;;;;;;;;;5053717;28;20242;-83
2023/10/16 00:19:33;;;;;;;2.70;2.50;;;;;;;;;;5053967;28;20254;-83
2023/10/16 00:22:00;;;;;;;2.67;2.57;;;;;;;;;;5049171;28;20303;-84
2023/10/16 00:24:28;;;;;;;2.67;2.50;;;;;;;;;;5053898;28;20229;-84
2023/10/16 00:27:00;;;;;;;2.47;2.20;;;;;;;;;;5053237;28;20236;-83
2023/10/16 00:29:35;;;;;;;2.50;2.40;;;;;;;;;;5053791;28;20604;-84
2023/10/16 00:32:02;;;;;;;3.20;3.00;;;;;;;;;;5053030;28;20230;-83
2023/10/16 00:34:29;;;;;;;2.23;2.13;;;;;;;;;;5053604;28;20260;-84
2023/10/16 00:36:58;;;;;;;2.60;2.40;;;;;;;;;;5053216;28;20233;-84
2023/10/16 00:39:28;;;;;;;2.33;2.23;;;;;;;;;;5053208;28;20233;-83
2023/10/16 00:41:57;;;;;;;2.87;2.67;;;;;;;;;;5052975;28;20235;-84
2023/10/16 00:44:24;;;;;;;2.40;2.30;;;;;;;;;;5053324;28;20210;-84
2023/10/16 00:46:53;;;;;;;6.07;2.00;;;;;;;;;;5053222;28;20707;-84
2023/10/16 00:49:23;;;;;;;2.80;2.50;;;;;;;;;;5053303;28;20310;-84
2023/10/16 00:51:50;;;;;;;2.17;2.07;;;;;;;;;;5052863;28;20234;-84
2023/10/16 00:54:27;;;;;;;2.30;2.10;;;;;;;;;;5053371;28;20631;-83
2023/10/16 00:56:57;;;;;;;2.73;2.53;;;;;;;;;;5053155;28;20238;-84
2023/10/16 00:59:24;;;;;;;3.47;2.57;;;;;;;;;;5047295;28;20228;-83
2023/10/16 01:02:07;;;;;;;2.13;2.03;;;;;;;;;;5049342;28;20229;-84
2023/10/16 01:04:34;;;;;;;2.93;2.53;;;;;;;;;;5045927;28;20212;-84
2023/10/16 01:07:01;;;;;;;2.60;2.40;;;;;;;;;;5058293;28;20725;-83
2023/10/16 01:09:34;;;;;;;5.10;2.80;;;;;;;;;;5046101;28;20236;-83
2023/10/16 01:12:06;;;;;;;2.50;2.40;;;;;;;;;;5048835;28;20581;-84
2023/10/16 01:14:33;;;;;;;2.23;2.13;;;;;;;;;;5052852;28;20287;-84
2023/10/16 01:17:01;;;;;;;2.53;2.33;;;;;;;;;;5052686;28;20236;-84
2023/10/16 01:19:28;;;;;;;2.30;2.20;;;;;;;;;;5052487;28;20226;-83
2023/10/16 01:21:58;;;;;;;3.07;2.47;;;;;;;;;;5052105;28;20629;-84
2023/10/16 01:24:27;;;;;;;2.13;2.03;;;;;;;;;;5052897;28;20210;-84
2023/10/16 01:27:00;;;;;;;2.43;2.23;;;;;;;;;;5052210;28;20739;-84
2023/10/16 01:29:27;;;;;;;2.27;2.17;;;;;;;;;;5052888;28;20321;-83
2023/10/16 01:31:55;;;;;;;3.20;2.40;;;;;;;;;;5051525;28;20230;-83
2023/10/16 01:34:23;;;;;;;2.20;2.10;;;;;;;;;;5052558;28;20228;-84
2023/10/16 01:36:51;;;;;;;2.33;2.13;;;;;;;;;;5051559;28;20599;-84
2023/10/16 01:42:11;;;;;;;3.00;2.40;;;;;;;;;;5051836;28;20656;-84
2023/10/16 01:44:39;;;;;;;2.10;2.00;;;;;;;;;;5052308;28;20205;-83
2023/10/16 01:47:13;;;;;;;2.13;2.03;;;;;;;;;;5052056;28;20303;-83
2023/10/16 01:49:40;;;;;;;2.10;2.00;;;;;;;;;;5052128;28;20223;-84
2023/10/16 01:52:10;;;;;;;3.70;2.17;;;;;;;;;;5052015;28;20237;-83
2023/10/16 01:54:38;;;;;;;2.57;2.30;;;;;;;;;;5052204;28;20229;-84
2023/10/16 01:57:10;;;;;;;2.30;2.20;;;;;;;;;;5051867;28;20230;-84
2023/10/16 01:59:39;;;;;;;2.20;2.10;;;;;;;;;;5052538;28;20666;-84
2023/10/16 02:02:06;;;;;;;3.47;2.30;;;;;;;;;;5051387;28;20253;-83
2023/10/16 02:04:33;;;;;;;2.20;2.10;;;;;;;;;;5052488;28;20205;-83
2023/10/16 02:07:00;;;;;;;2.37;2.17;;;;;;;;;;5051739;28;20229;-83
2023/10/16 02:09:31;;;;;;;2.33;2.23;;;;;;;;;;5051762;28;20747;-83
2023/10/16 02:11:59;;;;;;;2.00;1.90;;;;;;;;;;5051513;28;20279;-83
2023/10/16 02:14:27;;;;;;;2.27;2.17;;;;;;;;;;5051782;28;20233;-83
2023/10/16 02:16:56;;;;;;;2.40;2.30;;;;;;;;;;5051596;28;20240;-83
2023/10/16 02:19:24;;;;;;;2.37;2.23;;;;;;;;;;5051507;28;20445;-83
2023/10/16 02:21:53;;;;;;;2.10;2.00;;;;;;;;;;5051216;28;20721;-84
2023/10/16 02:24:21;;;;;;;3.43;2.63;;;;;;;;;;5051208;28;20210;-83
2023/10/16 02:26:56;;;;;;;2.33;2.13;;;;;;;;;;5051318;28;20238;-83
2023/10/16 02:29:24;;;;;;;2.73;2.63;;;;;;;;;;5051602;28;20232;-84
2023/10/16 02:31:52;;;;;;;2.43;2.33;;;;;;;;;;5050763;28;20242;-84
2023/10/16 02:34:22;;;;;;;3.70;2.10;;;;;;;;;;5051494;28;20301;-84
2023/10/16 02:36:51;;;;;;;2.40;2.27;;;;;;;;;;5031028;28;20245;-83
2023/10/16 02:39:35;;;;;;;2.10;2.00;;;;;;;;;;5045969;28;20257;-83
2023/10/16 02:42:05;;;;;;;2.50;2.30;;;;;;;;;;5050561;28;20232;-83
2023/10/16 02:44:32;;;;;;;2.20;2.10;;;;;;;;;;5051492;28;20238;-84
2023/10/16 02:47:05;;;;;;;2.40;2.30;;;;;;;;;;5050925;28;20233;-83
2023/10/16 02:49:33;;;;;;;2.73;2.53;;;;;;;;;;5047041;28;20230;-83
2023/10/16 02:52:00;;;;;;;4.90;2.37;;;;;;;;;;5050691;28;20237;-83
2023/10/16 02:54:27;;;;;;;2.10;2.00;;;;;;;;;;5051421;28;20731;-83
2023/10/16 02:56:59;;;;;;;2.53;2.43;;;;;;;;;;5050745;28;20237;-84
2023/10/16 02:59:26;;;;;;;2.40;2.10;;;;;;;;;;5050953;28;20579;-83
2023/10/16 03:01:56;;;;;;;2.20;2.10;;;;;;;;;;5050530;28;20238;-84
2023/10/16 03:04:27;;;;;;;2.50;2.30;;;;;;;;;;5051212;28;20692;-84
2023/10/16 03:06:55;;;;;;;2.40;2.20;;;;;;;;;;5050744;28;20234;-84
2023/10/16 03:09:29;;;;;;;2.90;2.53;;;;;;;;;;5051023;28;20241;-84
2023/10/16 03:12:04;;;;;;;2.60;2.40;;;;;;;;;;5050568;28;20241;-84
2023/10/16 03:14:44;;;;;;;2.40;2.20;;;;;;;;;;5050996;28;20244;-84
2023/10/16 03:17:17;;;;;;;2.47;2.37;;;;;;;;;;5050476;28;20745;-84
2023/10/16 03:19:48;;;;;;;2.50;2.40;;;;;;;;;;5051056;28;20225;-84
2023/10/16 03:22:15;;;;;;;2.73;2.53;;;;;;;;;;5050367;28;20237;-84
2023/10/16 03:24:43;;;;;;;2.40;2.30;;;;;;;;;;5051280;28;20656;-83
2023/10/16 03:27:10;;;;;;;2.33;2.20;;;;;;;;;;5050109;28;20279;-84
2023/10/16 03:29:37;;;;;;;3.07;2.83;;;;;;;;;;5050348;28;20249;-84
2023/10/16 03:32:05;;;;;;;3.03;2.70;;;;;;;;;;5049999;28;20276;-84
2023/10/16 03:34:32;;;;;;;2.30;2.20;;;;;;;;;;5050555;28;20225;-84
2023/10/16 03:37:04;;;;;;;2.50;2.30;;;;;;;;;;5053834;28;20856;-84
2023/10/16 03:39:32;;;;;;;2.30;2.20;;;;;;;;;;5054363;28;20237;-84
2023/10/16 03:42:00;;;;;;;2.50;2.30;;;;;;;;;;5053972;28;20226;-84
2023/10/16 03:44:27;;;;;;;2.53;2.33;;;;;;;;;;5054323;28;20202;-84
2023/10/16 03:46:55;;;;;;;2.50;2.40;;;;;;;;;;5054342;28;20245;-84
2023/10/16 03:49:22;;;;;;;3.07;2.87;;;;;;;;;;5054421;28;20359;-83
2023/10/16 03:51:50;;;;;;;2.83;2.60;;;;;;;;;;5053886;28;20727;-84
2023/10/16 03:54:30;;;;;;;2.53;2.40;;;;;;;;;;5054450;28;20276;-83
2023/10/16 03:56:59;;;;;;;2.60;2.40;;;;;;;;;;5049307;28;20244;-84
2023/10/16 03:59:28;;;;;;;2.17;2.07;;;;;;;;;;5054504;28;20229;-83
2023/10/16 04:01:55;;;;;;;2.70;2.50;;;;;;;;;;5053697;28;20225;-84
2023/10/16 04:04:25;;;;;;;3.10;2.90;;;;;;;;;;5054378;28;20577;-84
2023/10/16 04:06:56;;;;;;;4.07;2.37;;;;;;;;;;5054030;28;20243;-84
2023/10/16 04:09:29;;;;;;;5.97;2.60;;;;;;;;;;5053316;28;20324;-84
2023/10/16 04:11:57;;;;;;;2.40;2.30;;;;;;;;;;5059254;28;20568;-84
2023/10/16 04:14:44;;;;;;;2.17;2.03;;;;;;;;;;5053481;28;20308;-84
2023/10/16 04:17:11;;;;;;;2.50;2.40;;;;;;;;;;5053594;28;20241;-84
2023/10/16 04:19:52;;;;;;;2.70;2.50;;;;;;;;;;5054220;28;20225;-84
2023/10/16 04:22:18;;;;;;;2.40;2.30;;;;;;;;;;5053492;28;20240;-83
2023/10/16 04:24:47;;;;;;;2.57;2.47;;;;;;;;;;5054179;28;20198;-84
2023/10/16 04:33:13;;;;;;;2.60;2.40;;;;;;;;;;5055618;28;20208;-81
2023/10/16 04:36:49;;;;;;;2.07;2.00;;;;;;;;;;5054222;28;20233;-81
2023/10/16 04:38:54;;;;;;;3.00;2.70;;;;;;;;;;5050204;28;20221;-82
2023/10/16 04:44:23;;;;;;;4.70;2.60;;;;;;;;;;5053675;28;20742;-83
2023/10/16 04:46:55;;;;;;;2.50;2.40;;;;;;;;;;5052569;28;20321;-84
2023/10/16 04:49:28;;;;;;;2.50;2.10;;;;;;;;;;5053764;28;20264;-85
2023/10/16 04:52:06;;;;;;;2.60;2.50;;;;;;;;;;5048306;28;20232;-86
2023/10/16 04:54:58;;;;;;;2.50;2.40;;;;;;;;;;5053816;28;20221;-86
2023/10/16 04:57:47;;;;;;;2.53;2.30;;;;;;;;;;5053006;28;20234;-86
2023/10/16 05:00:54;;;;;;;3.03;2.70;;;;;;;;;;5052833;28;20214;-86
2023/10/16 05:03:23;;;;;;;2.67;2.53;;;;;;;;;;5052856;28;20690;-85
2023/10/16 05:06:04;;;;;;;2.83;2.63;;;;;;;;;;5053033;28;20243;-84
2023/10/16 05:08:59;;;;;;;2.70;2.50;;;;;;;;;;5054010;28;20225;-84
2023/10/16 05:11:27;;;;;;;2.33;2.23;;;;;;;;;;5052651;28;20259;-83
2023/10/16 05:13:56;;;;;;;3.43;2.70;;;;;;;;;;5053283;28;20671;-85
2023/10/16 05:16:31;;;;;;;2.60;2.40;;;;;;;;;;5052838;28;20246;-86
2023/10/16 05:19:04;;;;;;;2.53;2.43;;;;;;;;;;5052709;28;20696;-86
2023/10/16 06:14:11;;;;;;;2.63;2.53;;;;;;;;;;5052242;28;20244;-85
2023/10/16 06:16:39;;;;;;;2.40;2.30;;;;;;;;;;5052017;28;20316;-85
2023/10/16 06:19:14;;;;;;;2.50;2.40;;;;;;;;;;5052605;28;20226;-85
2023/10/16 06:21:45;;;;;;;2.40;2.30;;;;;;;;;;5051736;28;20599;-84
2023/10/16 06:24:25;;;;;;;4.17;2.57;;;;;;;;;;5052591;28;20291;-85
2023/10/16 06:26:52;;;;;;;2.30;2.20;;;;;;;;;;5051699;28;20255;-85
2023/10/16 06:29:19;;;;;;;2.77;2.67;;;;;;;;;;5053660;28;20229;-84
2023/10/16 06:31:53;;;;;;;2.77;2.57;;;;;;;;;;5053228;28;20241;-84
2023/10/16 06:34:22;;;;;;;2.47;2.27;;;;;;;;;;5053429;28;20218;-84
2023/10/16 06:36:51;;;;;;;2.70;2.57;;;;;;;;;;5051750;28;20234;-85
2023/10/16 06:39:28;;;;;;;3.77;2.50;;;;;;;;;;5052228;28;20265;-85
2023/10/16 06:41:55;;;;;;;3.60;2.63;;;;;;;;;;5051195;28;20240;-84
2023/10/16 06:44:28;;;;;;;3.17;2.67;;;;;;;;;;5052344;28;20202;-85
2023/10/16 06:46:58;;;;;;;10.23;2.97;;;;;;;;;;5051925;28;20253;-84
2023/10/16 06:49:27;;;;;;;2.53;2.43;;;;;;;;;;5052580;28;20750;-85
2023/10/16 06:51:56;;;;;;;3.10;2.90;;;;;;;;;;5051108;28;20707;-85
2023/10/16 06:54:24;;;;;;;2.43;2.33;;;;;;;;;;5056166;28;20229;-84
2023/10/16 06:56:51;;;;;;;3.90;3.07;;;;;;;;;;5055911;28;20234;-85
2023/10/16 06:59:18;;;;;;;3.23;2.93;;;;;;;;;;5059043;28;20600;-85
2023/10/16 07:01:46;;;;;;;3.50;3.00;;;;;;;;;;5050523;28;20255;-85
2023/10/16 07:04:14;;;;;;;3.97;3.67;;;;;;;;;;5051029;28;20209;-85
2023/10/16 07:06:44;;;;;;;5.77;3.50;;;;;;;;;;5050363;28;20233;-84
2023/10/16 07:09:12;;;;;;;3.13;2.83;;;;;;;;;;5058065;28;20829;-85
2023/10/16 07:11:42;;;;;;;4.83;3.10;;;;;;;;;;5050372;28;20205;-85
2023/10/16 07:14:12;;;;;;;4.80;3.40;;;;;;;;;;5050795;28;20213;-85
2023/10/16 07:16:40;;;;;;;8.27;3.20;;;;;;;;;;5050733;28;20253;-85
2023/10/16 07:19:08;;;;;;;10.17;3.20;;;;;;;;;;5050693;28;20253;-85
2023/10/16 07:21:35;;;;;;;3.27;3.07;;;;;;;;;;5049797;28;20245;-85
2023/10/16 07:24:04;;;;;;;2.83;2.70;;;;;;;;;;5049254;28;20202;-85
2023/10/16 07:26:34;;;;;;;3.50;3.20;;;;;;;;;;5065491;28;20519;-85
2023/10/16 07:29:02;;;;;;;3.63;3.33;;;;;;;;;;5054573;28;20282;-85
2023/10/16 07:31:29;;;;;;;3.23;2.93;;;;;;;;;;5049575;28;20233;-86
2023/10/16 07:33:59;;;;;;;2.87;2.67;;;;;;;;;;5050187;28;20717;-85
2023/10/16 07:36:27;;;;;;;3.83;3.53;;;;;;;;;;5049690;28;20237;-85
2023/10/16 07:38:54;;;;;;;6.40;3.13;;;;;;;;;;5055291;28;20229;-84
2023/10/16 07:41:23;;;;;;;4.73;3.03;;;;;;;;;;5049822;28;20329;-85
2023/10/16 07:43:56;;;;;;;6.77;3.50;;;;;;;;;;5050065;28;20198;-85
2023/10/16 07:46:30;;;;;;;3.57;3.37;;;;;;;;;;5041844;28;20222;-84
2023/10/16 07:49:01;;;;;;;3.30;3.10;;;;;;;;;;5056139;28;20222;-85
2023/10/16 07:51:28;;;;;;;3.33;3.13;;;;;;;;;;5051908;28;20596;-85
2023/10/16 07:53:56;;;;;;;4.10;3.37;;;;;;;;;;5050551;28;20206;-85
2023/10/16 07:56:29;;;;;;;3.50;3.20;;;;;;;;;;5049999;28;20234;-85
2023/10/16 07:59:06;;;;;;;4.03;3.63;;;;;;;;;;5049792;28;20225;-85
2023/10/16 08:01:36;;;;;;;4.83;3.63;;;;;;;;;;5049093;28;20233;-85
2023/10/16 08:04:03;;;;;;;4.40;4.00;;;;;;;;;;5049869;28;20198;-84
2023/10/16 08:06:30;;;;;;;5.57;4.07;;;;;;;;;;5049457;28;20222;-84
2023/10/16 08:11:42;;;;;;;4.33;3.93;;;;;;;;;;5048136;28;20225;-84
2023/10/16 08:14:09;;;;;;;5.10;4.07;;;;;;;;;;5049615;28;20256;-84
2023/10/16 08:16:38;;;;;;;5.40;3.63;;;;;;;;;;5049028;28;20233;-86
2023/10/16 08:19:14;;;;;;;8.67;5.17;;;;;;;;;;5049290;28;20252;-86
2023/10/16 08:21:42;;;;;;;9.57;4.83;;;;;;;;;;5050277;28;20307;-86
2023/10/16 08:24:12;;;;;;;5.97;4.30;;;;;;;;;;5053381;28;20205;-85
2023/10/16 08:26:44;;;;;;;4.57;3.77;;;;;;;;;;5052899;28;20229;-86
2023/10/16 08:29:19;;;;;;;5.30;4.43;;;;;;;;;;5053245;28;20226;-86
2023/10/16 08:31:47;;;;;;;4.90;4.50;;;;;;;;;;5052882;28;20228;-86
2023/10/16 08:34:19;;;;;;;5.57;4.97;;;;;;;;;;5053061;28;20220;-86
2023/10/16 08:36:50;;;;;;;11.17;5.97;;;;;;;;;;5052581;28;20788;-85
2023/10/16 08:39:19;;;;;;;7.97;5.53;;;;;;;;;;5052797;28;20251;-85
2023/10/16 08:42:00;;;;;;;6.30;4.70;;;;;;;;;;5052574;28;20257;-86
2023/10/16 08:44:29;;;;;;;7.03;5.03;;;;;;;;;;5045132;28;20683;-85
2023/10/16 08:47:16;;;;;;;7.10;4.53;;;;;;;;;;5052148;28;20228;-85
2023/10/16 08:49:52;;;;;;;6.83;5.17;;;;;;;;;;5053477;28;20221;-86
2023/10/16 08:52:21;;;;;;;7.17;4.67;;;;;;;;;;5052739;28;20737;-85
2023/10/16 08:55:02;;;;;;;5.17;4.67;;;;;;;;;;5052478;28;20221;-85
2023/10/16 08:57:31;;;;;;;6.60;4.50;;;;;;;;;;5045041;28;20224;-84
2023/10/16 08:59:58;;;;;;;7.00;4.50;;;;;;;;;;5060732;28;20204;-85
2023/10/16 09:02:26;;;;;;;6.23;5.07;;;;;;;;;;5052088;28;20225;-86
2023/10/16 09:04:54;;;;;;;7.27;5.67;;;;;;;;;;5052191;28;20210;-86
2023/10/16 09:07:20;;;;;;;7.90;4.90;;;;;;;;;;5054825;28;20286;-86
2023/10/16 09:09:48;;;;;;;5.00;4.50;;;;;;;;;;5057521;28;20206;-86
2023/10/16 09:12:24;;;;;;;4.67;4.23;;;;;;;;;;5051564;28;20317;-85
2023/10/16 09:14:53;;;;;;;5.50;4.40;;;;;;;;;;5052424;28;20525;-86
2023/10/16 09:17:20;;;;;;;5.20;4.13;;;;;;;;;;5051841;28;20230;-86
2023/10/16 09:19:48;;;;;;;4.50;4.10;;;;;;;;;;5057991;28;20312;-86
2023/10/16 09:22:17;;;;;;;5.07;4.30;;;;;;;;;;5052305;28;20237;-87
2023/10/16 09:24:45;;;;;;;5.13;4.23;;;;;;;;;;5057942;28;20606;-86
2023/10/16 09:27:16;;;;;;;5.67;4.43;;;;;;;;;;5051747;28;20256;-86
2023/10/16 09:29:53;;;;;;;6.43;4.20;;;;;;;;;;5052006;28;20534;-87
2023/10/16 09:32:25;;;;;;;5.27;4.17;;;;;;;;;;5051576;28;20322;-85
2023/10/16 09:34:53;;;;;;;6.20;4.23;;;;;;;;;;5051723;28;20194;-86
2023/10/16 09:37:24;;;;;;;4.87;4.13;;;;;;;;;;5051022;28;20727;-86
2023/10/16 09:39:53;;;;;;;7.57;4.50;;;;;;;;;;5054269;28;20601;-85
2023/10/16 09:42:25;;;;;;;9.47;4.13;;;;;;;;;;5051441;28;20234;-86
2023/10/16 09:44:59;;;;;;;4.23;3.83;;;;;;;;;;5051585;28;20233;-86
2023/10/16 09:47:27;;;;;;;8.50;4.20;;;;;;;;;;5051548;28;20229;-86
2023/10/16 09:49:55;;;;;;;5.13;4.63;;;;;;;;;;5051932;28;20241;-85
2023/10/16 09:52:23;;;;;;;7.40;4.50;;;;;;;;;;5051252;28;20240;-86
2023/10/16 09:54:51;;;;;;;7.63;4.73;;;;;;;;;;5051121;28;20212;-86
2023/10/16 09:57:22;;;;;;;6.27;4.87;;;;;;;;;;5051172;28;20238;-86
2023/10/16 09:59:54;;;;;;;6.30;4.70;;;;;;;;;;5051643;28;20205;-85
2023/10/16 10:02:25;;;;;;;6.83;4.43;;;;;;;;;;5051572;28;20226;-86
2023/10/16 10:04:54;;;;;;;4.93;4.13;;;;;;;;;;5051466;28;20669;-86
2023/10/16 10:07:34;;;;;;;6.80;4.60;;;;;;;;;;5050944;28;20287;-86
2023/10/16 10:11:04;;;;;;;4.80;4.03;;;;;;;;;;5051445;28;20198;-86
2023/10/16 10:12:50;;;;;;;4.83;4.27;;;;;;;;;;5062903;28;20638;-85
2023/10/16 10:15:22;;;;;;;8.83;4.53;;;;;;;;;;5062947;28;20719;-86
2023/10/16 10:17:52;;;;;;;5.03;4.43;;;;;;;;;;5057628;28;20236;-86
2023/10/16 10:20:25;;;;;;;4.53;3.77;;;;;;;;;;5051228;28;20240;-86
2023/10/16 10:22:57;;;;;;;4.63;4.07;;;;;;;;;;5059878;28;20202;-85
2023/10/16 10:25:35;;;;;;;5.33;3.97;;;;;;;;;;5051013;28;20719;-85
2023/10/16 10:28:09;;;;;;;3.47;3.17;;;;;;;;;;5054383;28;20233;-85
2023/10/16 10:30:39;;;;;;;4.33;3.20;;;;;;;;;;5045264;28;20580;-85
2023/10/16 10:33:06;;;;;;;4.13;3.40;;;;;;;;;;5062095;28;20726;-85
2023/10/16 10:35:39;;;;;;;6.33;3.77;;;;;;;;;;5070060;28;20230;-86
2023/10/16 10:38:07;;;;;;;4.20;3.40;;;;;;;;;;5061966;28;20234;-85
2023/10/16 10:40:35;;;;;;;6.83;3.70;;;;;;;;;;5066311;28;20221;-86
2023/10/16 10:43:04;;;;;;;4.83;3.40;;;;;;;;;;5068336;28;20442;-87
2023/10/16 10:45:34;;;;;;;5.73;3.43;;;;;;;;;;5070442;28;20232;-86
2023/10/16 10:48:06;;;;;;;4.40;3.53;;;;;;;;;;5064747;28;20225;-87
2023/10/16 10:50:38;;;;;;;5.27;3.27;;;;;;;;;;5049747;28;20275;-85
2023/10/16 10:53:13;;;;;;;3.20;3.00;;;;;;;;;;5052425;28;20206;-85
2023/10/16 10:55:52;;;;;;;4.77;3.30;;;;;;;;;;5057581;28;20310;-85
2023/10/16 10:58:20;;;;;;;2.80;2.53;;;;;;;;;;5052032;28;20309;-86
2023/10/16 11:00:50;;;;;;;5.53;3.23;;;;;;;;;;5062246;28;20240;-85
2023/10/16 11:03:31;;;;;;;3.33;3.07;;;;;;;;;;5060521;28;20206;-83
2023/10/16 11:06:00;;;;;;;3.77;2.70;;;;;;;;;;5067714;28;20228;-84
2023/10/16 11:08:29;;;;;;;3.17;2.50;;;;;;;;;;5066099;28;20230;-85
2023/10/16 11:10:57;;;;;;;3.97;2.70;;;;;;;;;;5069315;28;20233;-85
2023/10/16 11:13:26;;;;;;;2.70;2.43;;;;;;;;;;5059474;28;20198;-86
2023/10/16 11:15:54;;;;;;;3.30;1.70;;;;;;;;;;5057384;28;20256;-85
2023/10/16 11:18:22;;;;;;;1.90;1.80;;;;;;;;;;5053539;28;20240;-84
2023/10/16 11:20:49;;;;;;;2.83;1.70;;;;;;;;;;5052821;28;20230;-85
2023/10/16 11:23:21;;;;;;;4.17;1.83;;;;;;;;;;5052573;28;20214;-85
2023/10/16 11:25:51;;;;;;;1.90;1.80;;;;;;;;;;5049549;28;20295;-86
2023/10/16 11:28:20;;;;;;;2.87;2.17;;;;;;;;;;5050382;28;20222;-86
2023/10/16 11:30:49;;;;;;;2.53;1.83;;;;;;;;;;5050412;28;20233;-86
2023/10/16 11:33:24;;;;;;;1.70;1.20;;;;;;;;;;5059956;28;20272;-86
2023/10/16 11:35:54;;;;;;;3.13;1.73;;;;;;;;;;5055660;28;20229;-86
2023/10/16 11:38:28;;;;;;;1.90;1.50;;;;;;;;;;5051113;28;20797;-86
2023/10/16 11:40:55;;;;;;;2.93;1.17;;;;;;;;;;5064525;28;20229;-86
2023/10/16 11:43:22;;;;;;;1.43;1.10;;;;;;;;;;5070786;28;20209;-86
2023/10/16 11:45:53;;;;;;;1.57;1.13;;;;;;;;;;5069622;28;20838;-86
2023/10/16 11:48:39;;;;;;;1.07;1.07;;;;;;;;;;5070300;28;20221;-86
2023/10/16 11:51:08;;;;;;;2.37;1.27;;;;;;;;;;5069779;28;20225;-86
2023/10/16 11:53:37;;;;;;;1.33;1.20;;;;;;;;;;5042130;28;20206;-87
2023/10/16 11:56:05;;;;;;;2.80;1.17;;;;;;;;;;5050135;28;20244;-86
2023/10/16 11:58:32;;;;;;;2.30;1.50;;;;;;;;;;5054129;28;20233;-87
2023/10/16 12:01:09;;;;;;;1.27;1.23;;;;;;;;;;5053198;28;20603;-87
2023/10/16 12:03:37;;;;;;;2.70;1.37;;;;;;;;;;5045558;28;20696;-87
2023/10/16 12:06:08;;;;;;;1.07;1.03;;;;;;;;;;5053417;28;20226;-86
2023/10/16 12:08:40;;;;;;;1.43;1.33;;;;;;;;;;5045680;28;20229;-86
2023/10/16 12:11:07;;;;;;;2.63;1.30;;;;;;;;;;5053476;28;20230;-86
2023/10/16 12:13:36;;;;;;;1.63;1.40;;;;;;;;;;5053906;28;20202;-87
2023/10/16 12:16:05;;;;;;;1.80;1.10;;;;;;;;;;5053855;28;20230;-87
2023/10/16 12:18:32;;;;;;;1.30;1.20;;;;;;;;;;5053742;28;20222;-86
2023/10/16 12:21:04;;;;;;;2.50;1.67;;;;;;;;;;5053192;28;20279;-87
2023/10/16 12:23:32;;;;;;;1.70;1.30;;;;;;;;;;5072997;28;20251;-87
2023/10/16 12:26:01;;;;;;;4.30;1.50;;;;;;;;;;5073362;28;20217;-87
2023/10/16 12:28:30;;;;;;;2.13;1.20;;;;;;;;;;5073926;28;20226;-87
2023/10/16 12:30:57;;;;;;;1.10;1.00;;;;;;;;;;5073190;28;20308;-86
2023/10/16 12:33:26;;;;;;;1.10;1.00;;;;;;;;;;5063481;28;20206;-87
2023/10/16 12:35:54;;;;;;;7.57;1.47;;;;;;;;;;5052806;28;20641;-87
2023/10/16 12:38:23;;;;;;;2.97;1.00;;;;;;;;;;5053596;28;20320;-87
2023/10/16 12:40:53;;;;;;;1.23;1.03;;;;;;;;;;5053060;28;20222;-86
2023/10/16 12:43:22;;;;;;;1.27;1.00;;;;;;;;;;5054852;28;20206;-87
2023/10/16 12:45:50;;;;;;;1.40;1.30;;;;;;;;;;5059456;28;20222;-87
2023/10/16 12:48:18;;;;;;;2.70;1.37;;;;;;;;;;5053093;28;20312;-86
2023/10/16 12:50:47;;;;;;;2.57;1.50;;;;;;;;;;5051952;28;20284;-86
2023/10/16 12:53:15;;;;;;;1.50;1.40;;;;;;;;;;5061530;28;20197;-85
2023/10/16 12:55:48;;;;;;;2.73;1.40;;;;;;;;;;5072979;28;20252;-86
2023/10/16 12:58:18;;;;;;;2.93;1.20;;;;;;;;;;5072975;28;20612;-85
2023/10/16 13:00:50;;;;;;;1.40;1.30;;;;;;;;;;5072366;28;20229;-86
2023/10/16 13:03:20;;;;;;;1.53;1.23;;;;;;;;;;5072544;28;20694;-86
2023/10/16 13:05:47;;;;;;;1.90;1.60;;;;;;;;;;5059366;28;20233;-86
2023/10/16 13:08:16;;;;;;;1.67;1.50;;;;;;;;;;5060752;28;20232;-85
2023/10/16 13:10:48;;;;;;;1.30;1.20;;;;;;;;;;5052171;28;20256;-86
2023/10/16 13:13:19;;;;;;;3.27;1.20;;;;;;;;;;5053096;28;20769;-87
2023/10/16 13:15:51;;;;;;;1.40;1.30;;;;;;;;;;5061028;28;20229;-86
2023/10/16 13:18:26;;;;;;;1.77;1.53;;;;;;;;;;5053416;28;20254;-86
2023/10/16 13:20:57;;;;;;;2.20;1.50;;;;;;;;;;5072287;28;20236;-86
2023/10/16 13:23:24;;;;;;;2.27;1.67;;;;;;;;;;5054483;28;20202;-86
2023/10/16 13:25:56;;;;;;;3.73;1.50;;;;;;;;;;5052160;28;20226;-86
2023/10/16 13:28:23;;;;;;;2.80;1.90;;;;;;;;;;5052137;28;20252;-84
2023/10/16 13:30:52;;;;;;;1.70;1.60;;;;;;;;;;5045158;28;20226;-85
2023/10/16 13:33:19;;;;;;;2.90;1.60;;;;;;;;;;5052132;28;20206;-85
2023/10/16 13:35:47;;;;;;;2.37;1.87;;;;;;;;;;5051359;28;20234;-85
2023/10/16 13:38:14;;;;;;;2.80;2.03;;;;;;;;;;5058753;28;20217;-84
2023/10/16 13:40:43;;;;;;;2.40;1.60;;;;;;;;;;5050301;28;20238;-85
2023/10/16 13:43:17;;;;;;;2.23;1.80;;;;;;;;;;5060419;28;20220;-85
2023/10/16 13:45:44;;;;;;;2.07;1.60;;;;;;;;;;5051438;28;20226;-85
2023/10/16 13:48:16;;;;;;;2.40;1.67;;;;;;;;;;5052305;28;20221;-85
2023/10/16 13:50:47;;;;;;;2.07;1.57;;;;;;;;;;5051923;28;20605;-85
2023/10/16 13:53:15;;;;;;;2.93;1.77;;;;;;;;;;5060295;28;20606;-84
2023/10/16 13:55:42;;;;;;;2.13;1.60;;;;;;;;;;5043580;28;20249;-84
2023/10/16 13:58:09;;;;;;;3.23;1.53;;;;;;;;;;5052007;28;20230;-85
2023/10/16 14:00:38;;;;;;;1.80;1.60;;;;;;;;;;5054363;28;20255;-85
2023/10/16 14:03:07;;;;;;;3.80;1.80;;;;;;;;;;5065460;28;20212;-85
2023/10/16 14:05:40;;;;;;;1.80;1.70;;;;;;;;;;5051634;28;20234;-85
2023/10/16 14:08:09;;;;;;;2.20;1.67;;;;;;;;;;5052391;28;20272;-85
2023/10/16 14:10:38;;;;;;;3.63;1.87;;;;;;;;;;5053589;28;20237;-85
2023/10/16 14:13:18;;;;;;;1.80;1.50;;;;;;;;;;5072679;28;20198;-85
2023/10/16 14:15:45;;;;;;;2.67;1.97;;;;;;;;;;5071458;28;20225;-85
2023/10/16 14:18:15;;;;;;;2.17;1.73;;;;;;;;;;5071535;28;20228;-85
2023/10/16 14:20:46;;;;;;;1.60;1.50;;;;;;;;;;5058572;28;20287;-86
2023/10/16 14:23:13;;;;;;;1.70;1.60;;;;;;;;;;5051204;28;20299;-85
2023/10/16 14:25:45;;;;;;;2.23;1.77;;;;;;;;;;5051114;28;20234;-85
2023/10/16 14:28:25;;;;;;;2.40;1.80;;;;;;;;;;5051436;28;20229;-85
2023/10/16 14:30:54;;;;;;;3.83;1.70;;;;;;;;;;5043970;28;20225;-86
2023/10/16 14:33:21;;;;;;;2.00;1.67;;;;;;;;;;5051608;28;20595;-85
2023/10/16 14:35:50;;;;;;;2.27;1.67;;;;;;;;;;5051397;28;20277;-86
2023/10/16 14:38:19;;;;;;;4.60;1.97;;;;;;;;;;5051592;28;20345;-85
2023/10/16 14:40:46;;;;;;;2.27;1.80;;;;;;;;;;5050829;28;20381;-85
2023/10/16 14:43:15;;;;;;;2.60;1.60;;;;;;;;;;5051089;28;20202;-85
2023/10/16 14:45:42;;;;;;;2.07;1.60;;;;;;;;;;5050442;28;20592;-85
2023/10/16 14:48:10;;;;;;;2.07;1.50;;;;;;;;;;5058084;28;20221;-86
2023/10/16 14:50:38;;;;;;;3.00;1.73;;;;;;;;;;5070524;28;20239;-86
2023/10/16 14:53:07;;;;;;;5.77;1.80;;;;;;;;;;5056140;28;20214;-86
2023/10/16 14:55:36;;;;;;;4.73;1.80;;;;;;;;;;5050457;28;20230;-86
2023/10/16 14:58:03;;;;;;;3.90;1.67;;;;;;;;;;5056460;28;20225;-86
2023/10/16 15:00:32;;;;;;;2.23;1.97;;;;;;;;;;5069993;28;20224;-87
2023/10/16 15:03:00;;;;;;;2.50;1.60;;;;;;;;;;5071058;28;20205;-87
2023/10/16 15:05:28;;;;;;;1.70;1.60;;;;;;;;;;5070036;28;20695;-86
2023/10/16 15:07:58;;;;;;;3.03;1.60;;;;;;;;;;5065963;28;20304;-87
2023/10/16 15:10:27;;;;;;;3.13;1.70;;;;;;;;;;5049926;28;20252;-86
2023/10/16 15:12:55;;;;;;;1.70;1.60;;;;;;;;;;5050377;28;20249;-86
2023/10/16 15:15:22;;;;;;;2.90;1.67;;;;;;;;;;5049524;28;20209;-87
2023/10/16 15:17:49;;;;;;;2.83;1.40;;;;;;;;;;5050045;28;20236;-87
2023/10/16 15:20:16;;;;;;;2.47;1.57;;;;;;;;;;5049502;28;20221;-87
2023/10/16 15:22:44;;;;;;;3.33;1.80;;;;;;;;;;5049928;28;20201;-87
2023/10/16 15:25:12;;;;;;;2.20;1.70;;;;;;;;;;5056624;28;20208;-86
2023/10/16 15:27:42;;;;;;;2.00;1.50;;;;;;;;;;5070194;28;20255;-87
2023/10/16 15:30:11;;;;;;;3.13;1.70;;;;;;;;;;5070276;28;20208;-87
2023/10/16 15:32:39;;;;;;;2.43;1.43;;;;;;;;;;5074586;28;20215;-87
2023/10/16 15:35:06;;;;;;;2.07;1.60;;;;;;;;;;5074000;28;20233;-87
2023/10/16 15:37:33;;;;;;;2.43;1.67;;;;;;;;;;5072690;28;20236;-87
2023/10/16 15:40:01;;;;;;;3.67;1.40;;;;;;;;;;5060308;28;20193;-87
2023/10/16 15:42:28;;;;;;;2.43;1.67;;;;;;;;;;5056287;28;20599;-86
2023/10/16 15:44:56;;;;;;;1.80;1.60;;;;;;;;;;5054404;28;20205;-86
2023/10/16 15:47:26;;;;;;;2.07;1.33;;;;;;;;;;5053601;28;20232;-86
2023/10/16 15:49:54;;;;;;;2.10;1.43;;;;;;;;;;5058772;28;20551;-86
2023/10/16 15:52:21;;;;;;;2.50;1.50;;;;;;;;;;5073903;28;20228;-87
2023/10/16 15:54:48;;;;;;;4.83;1.63;;;;;;;;;;5074312;28;20213;-86
2023/10/16 15:57:15;;;;;;;1.50;1.40;;;;;;;;;;5066103;28;20234;-86
2023/10/16 15:59:43;;;;;;;2.57;1.73;;;;;;;;;;5053807;28;20708;-86
2023/10/16 16:02:12;;;;;;;2.70;1.97;;;;;;;;;;5053709;28;20226;-87
2023/10/16 16:04:40;;;;;;;5.13;1.70;;;;;;;;;;5056001;28;20293;-87
2023/10/16 16:07:09;;;;;;;3.37;1.80;;;;;;;;;;5073445;28;20217;-86
2023/10/16 16:09:36;;;;;;;2.63;1.83;;;;;;;;;;5073867;28;20231;-86